Time;durP1;ratioP1;P1;durP2;ratioP2;P2;SDS_P1;SDS_P2;PMS_P1;PMS_P2;Temp;Humidity;BMP_temperature;BMP_pressure;BME280_temperature;BME280_humidity;BME280_pressure;Samples;Min_cycle;Max_cycle;Signal;HPM_P1;HPM_P2
2023/06/13 00:01:15;;;;;;;7.35;4.45;;;12.50;99.90;;;;;;5002235;28;20115;-57
2023/06/13 00:03:40;;;;;;;4.35;3.92;;;12.40;99.90;;;;;;4994200;28;20513;-58
2023/06/13 00:06:07;;;;;;;11.98;5.18;;;12.40;99.90;;;;;;4994252;28;20019;-57
2023/06/13 00:08:33;;;;;;;4.90;4.38;;;12.30;99.90;;;;;;4996340;28;20030;-57
2023/06/13 00:10:59;;;;;;;4.75;4.22;;;12.20;99.90;;;;;;4994462;28;20188;-55
2023/06/13 00:13:25;;;;;;;5.18;3.70;;;12.20;99.90;;;;;;4998628;28;20140;-57
2023/06/13 00:15:58;;;;;;;4.70;4.28;;;12.20;99.90;;;;;;4996054;28;20117;-57
2023/06/13 00:18:24;;;;;;;4.85;4.45;;;12.10;99.90;;;;;;4997625;28;20035;-57
2023/06/13 00:20:54;;;;;;;5.25;4.22;;;12.10;99.90;;;;;;4997263;28;20034;-55
2023/06/13 00:23:20;;;;;;;4.70;3.75;;;12.10;99.90;;;;;;4993520;28;20530;-57
2023/06/13 00:25:46;;;;;;;5.15;4.13;;;12.20;99.90;;;;;;4997684;28;20030;-56
2023/06/13 00:28:12;;;;;;;9.60;4.72;;;12.20;99.90;;;;;;4996356;28;20021;-57
2023/06/13 00:30:37;;;;;;;6.05;4.72;;;12.10;99.90;;;;;;4996409;28;20030;-58
2023/06/13 00:33:04;;;;;;;5.32;4.82;;;12.10;99.90;;;;;;4996886;28;20030;-56
2023/06/13 00:35:30;;;;;;;4.60;4.20;;;12.10;99.90;;;;;;4996389;28;20045;-56
2023/06/13 00:37:57;;;;;;;5.18;4.78;;;12.00;99.90;;;;;;4995346;28;20029;-57
2023/06/13 00:40:23;;;;;;;11.48;4.80;;;12.00;99.90;;;;;;4995730;28;20026;-56
2023/06/13 00:42:52;;;;;;;5.43;4.75;;;11.90;99.90;;;;;;4996023;28;20038;-56
2023/06/13 00:45:22;;;;;;;5.38;4.30;;;11.80;99.90;;;;;;4997244;28;20039;-56
2023/06/13 00:47:57;;;;;;;5.53;5.03;;;11.70;99.90;;;;;;4994566;28;20045;-57
2023/06/13 00:50:27;;;;;;;5.22;4.72;;;11.60;99.90;;;;;;4996859;28;20030;-58
2023/06/13 00:52:57;;;;;;;5.10;4.53;;;11.60;99.90;;;;;;4994113;28;20062;-58
2023/06/13 00:55:25;;;;;;;5.78;4.93;;;11.50;99.90;;;;;;4995756;28;20450;-56
2023/06/13 00:57:55;;;;;;;5.03;4.55;;;11.40;99.90;;;;;;4994154;28;20054;-56
2023/06/13 01:00:25;;;;;;;5.60;5.18;;;11.30;99.90;;;;;;4997153;28;20116;-57
2023/06/13 01:02:55;;;;;;;5.63;5.13;;;11.40;99.90;;;;;;4992185;28;20035;-56
2023/06/13 01:05:25;;;;;;;6.05;5.32;;;11.30;99.90;;;;;;4999363;28;20034;-58
2023/06/13 01:07:51;;;;;;;5.53;5.03;;;11.20;99.90;;;;;;4996660;28;20109;-56
2023/06/13 01:10:18;;;;;;;5.95;4.97;;;11.20;99.90;;;;;;4997870;28;20442;-57
2023/06/13 01:13:03;;;;;;;5.63;4.88;;;11.10;99.90;;;;;;5001195;28;20038;-57
2023/06/13 01:15:33;;;;;;;5.97;4.75;;;11.10;99.90;;;;;;4999166;28;20026;-57
2023/06/13 01:18:03;;;;;;;5.78;5.18;;;11.10;99.90;;;;;;5000939;28;20495;-57
2023/06/13 01:20:31;;;;;;;4.95;4.55;;;11.10;99.90;;;;;;4999530;28;20084;-58
2023/06/13 01:23:06;;;;;;;5.40;4.82;;;11.10;99.90;;;;;;4994368;28;20031;-57
2023/06/13 01:25:59;;;;;;;5.80;4.90;;;11.10;99.90;;;;;;5001935;28;20014;-57
2023/06/13 01:28:26;;;;;;;8.07;5.30;;;11.00;99.90;;;;;;4999285;28;20045;-58
2023/06/13 01:30:53;;;;;;;5.72;5.22;;;11.00;99.90;;;;;;5001849;28;20105;-57
2023/06/13 01:33:21;;;;;;;6.10;5.57;;;11.00;99.90;;;;;;5000909;28;20037;-57
2023/06/13 01:35:47;;;;;;;9.23;5.28;;;11.00;99.90;;;;;;5000788;28;20033;-57
2023/06/13 01:38:14;;;;;;;7.97;4.57;;;11.00;99.90;;;;;;4997534;28;20490;-57
2023/06/13 01:40:40;;;;;;;9.93;6.82;;;10.90;99.90;;;;;;5000548;28;20064;-57
2023/06/13 01:43:05;;;;;;;6.25;4.65;;;10.90;99.90;;;;;;4999593;28;20030;-56
2023/06/13 01:45:32;;;;;;;6.60;5.93;;;10.80;99.90;;;;;;5001824;28;20074;-58
2023/06/13 01:48:08;;;;;;;5.72;5.32;;;10.70;99.90;;;;;;4999815;28;20054;-57
2023/06/13 01:50:54;;;;;;;8.18;5.78;;;10.70;99.90;;;;;;4999303;28;20034;-57
2023/06/13 01:53:19;;;;;;;9.80;5.55;;;10.60;99.90;;;;;;4999436;28;20520;-57
2023/06/13 01:55:51;;;;;;;7.85;6.00;;;10.60;99.90;;;;;;4999840;28;20022;-56
2023/06/13 01:58:24;;;;;;;6.13;5.53;;;10.50;99.90;;;;;;4998313;28;20490;-56
2023/06/13 02:00:55;;;;;;;6.70;5.93;;;10.40;99.90;;;;;;4997869;28;20872;-57
2023/06/13 02:03:21;;;;;;;;;;;10.30;99.90;;;;;;4999832;28;20042;-57
2023/06/13 02:05:47;;;;;;;6.07;5.40;;;10.20;99.90;;;;;;4999218;28;19918;-56
2023/06/13 02:08:13;;;;;;;5.97;5.47;;;10.20;99.90;;;;;;4998163;28;20022;-57
2023/06/13 02:10:39;;;;;;;5.88;5.22;;;10.10;99.90;;;;;;4997305;28;20045;-57
2023/06/13 02:13:05;;;;;;;6.70;6.07;;;10.00;99.90;;;;;;4998982;28;20110;-57
2023/06/13 02:15:31;;;;;;;7.90;6.03;;;9.90;99.90;;;;;;4997572;28;20029;-57
2023/06/13 02:17:56;;;;;;;6.65;6.15;;;9.80;99.90;;;;;;4998170;28;20059;-57
2023/06/13 02:20:22;;;;;;;5.93;5.43;;;9.80;99.90;;;;;;4998756;28;20050;-57
2023/06/13 02:22:48;;;;;;;7.60;5.90;;;9.80;99.90;;;;;;4998936;28;20053;-57
2023/06/13 02:25:14;;;;;;;5.78;5.38;;;9.80;99.90;;;;;;4997842;28;20041;-57
2023/06/13 02:27:40;;;;;;;7.07;6.13;;;9.80;99.90;;;;;;4997673;28;20026;-56
2023/06/13 02:30:08;;;;;;;16.88;6.28;;;9.70;99.90;;;;;;5002207;28;20033;-56
2023/06/13 02:32:36;;;;;;;6.93;6.20;;;9.80;99.90;;;;;;4999160;28;20029;-56
2023/06/13 02:35:02;;;;;;;6.38;5.88;;;9.70;99.90;;;;;;4997133;28;20033;-57
2023/06/13 02:37:28;;;;;;;6.70;6.05;;;9.70;99.90;;;;;;5001106;28;20034;-57
2023/06/13 02:39:54;;;;;;;7.57;5.65;;;9.70;99.90;;;;;;4999041;28;20385;-58
2023/06/13 02:42:19;;;;;;;6.85;6.25;;;9.60;99.90;;;;;;4998046;28;20499;-57
2023/06/13 02:44:45;;;;;;;7.75;5.78;;;9.60;99.90;;;;;;4996731;28;20029;-58
2023/06/13 02:47:10;;;;;;;7.72;6.15;;;9.60;99.90;;;;;;4995824;28;20029;-56
2023/06/13 02:49:36;;;;;;;8.02;6.05;;;9.60;99.90;;;;;;4998756;28;20130;-56
2023/06/13 02:52:02;;;;;;;6.93;6.00;;;9.60;99.90;;;;;;4997943;28;20036;-57
2023/06/13 02:54:27;;;;;;;5.95;5.45;;;9.60;99.90;;;;;;4996685;28;20042;-57
2023/06/13 02:56:53;;;;;;;8.45;6.10;;;9.50;99.90;;;;;;4997710;28;20042;-57
2023/06/13 02:59:19;;;;;;;6.65;6.05;;;9.50;99.90;;;;;;4996529;28;20029;-57
2023/06/13 03:01:45;;;;;;;6.93;6.38;;;9.50;99.90;;;;;;4996325;28;20104;-57
2023/06/13 03:04:11;;;;;;;7.40;6.03;;;9.40;99.90;;;;;;4993619;28;20467;-58
2023/06/13 03:06:40;;;;;;;6.57;6.00;;;9.40;99.90;;;;;;4998961;28;20029;-57
2023/06/13 03:09:06;;;;;;;6.80;6.20;;;9.40;99.90;;;;;;4997138;28;20061;-57
2023/06/13 03:11:32;;;;;;;6.28;5.70;;;9.30;99.90;;;;;;4996626;28;20050;-56
2023/06/13 03:13:57;;;;;;;5.85;5.40;;;9.30;99.90;;;;;;5000258;28;20030;-57
2023/06/13 03:16:24;;;;;;;7.13;6.35;;;9.30;99.90;;;;;;5004993;28;20030;-58
2023/06/13 03:18:50;;;;;;;6.90;6.20;;;9.30;99.90;;;;;;5001253;28;20035;-57
2023/06/13 03:21:15;;;;;;;6.72;5.88;;;9.30;99.90;;;;;;4996798;28;20406;-57
2023/06/13 03:23:41;;;;;;;6.97;6.28;;;9.30;99.90;;;;;;4997569;28;20136;-57
2023/06/13 03:26:09;;;;;;;6.82;6.20;;;9.20;99.90;;;;;;4998063;28;20915;-57
2023/06/13 03:28:35;;;;;;;7.38;5.88;;;9.20;99.90;;;;;;4999521;28;20105;-57
2023/06/13 03:31:00;;;;;;;7.65;6.30;;;9.20;99.90;;;;;;4998382;28;20137;-57
2023/06/13 03:33:26;;;;;;;6.68;6.00;;;9.10;99.90;;;;;;4997410;28;20042;-57
2023/06/13 03:35:52;;;;;;;6.40;5.80;;;9.00;99.90;;;;;;4996769;28;20037;-56
2023/06/13 03:38:19;;;;;;;6.68;5.43;;;8.90;99.90;;;;;;4997255;28;20030;-57
2023/06/13 03:40:44;;;;;;;6.95;6.35;;;8.90;99.90;;;;;;4999031;28;20486;-57
2023/06/13 03:43:10;;;;;;;8.35;6.38;;;8.90;99.90;;;;;;4997615;28;20048;-58
2023/06/13 03:45:36;;;;;;;7.00;5.78;;;8.80;99.90;;;;;;4993900;28;20029;-57
2023/06/13 03:48:02;;;;;;;7.18;6.57;;;8.80;99.90;;;;;;4994116;28;20510;-58
2023/06/13 03:50:27;;;;;;;7.30;6.60;;;8.80;99.90;;;;;;5000801;28;20026;-57
2023/06/13 03:52:53;;;;;;;6.88;6.30;;;8.90;99.90;;;;;;4997730;28;20031;-58
2023/06/13 03:55:19;;;;;;;7.95;6.35;;;8.90;99.90;;;;;;4999041;28;20092;-58
2023/06/13 03:57:45;;;;;;;8.38;7.22;;;9.00;99.90;;;;;;4996390;28;20505;-57
2023/06/13 04:00:12;;;;;;;6.72;6.22;;;9.00;99.90;;;;;;4999579;28;20022;-57
2023/06/13 04:02:37;;;;;;;7.15;6.60;;;9.00;99.90;;;;;;4993296;28;20023;-57
2023/06/13 04:05:04;;;;;;;6.88;5.93;;;9.10;99.90;;;;;;4994785;28;20034;-58
2023/06/13 04:07:33;;;;;;;6.53;6.03;;;9.10;99.90;;;;;;5000127;28;20022;-57
2023/06/13 04:10:00;;;;;;;6.63;6.03;;;9.10;99.90;;;;;;4995637;28;20034;-57
2023/06/13 04:12:26;;;;;;;6.43;5.82;;;9.10;99.90;;;;;;4995121;28;20383;-57
2023/06/13 04:14:51;;;;;;;8.07;7.38;;;9.10;99.90;;;;;;4998134;28;20025;-57
2023/06/13 04:17:17;;;;;;;7.25;6.75;;;9.20;99.90;;;;;;4996818;28;20022;-58
2023/06/13 04:19:42;;;;;;;7.32;6.65;;;9.20;99.90;;;;;;4997026;28;20076;-57
2023/06/13 04:22:09;;;;;;;8.13;7.20;;;9.20;99.90;;;;;;4995309;28;20031;-57
2023/06/13 04:24:35;;;;;;;7.53;6.93;;;9.30;99.90;;;;;;4997237;28;20597;-57
2023/06/13 04:27:03;;;;;;;7.95;7.22;;;9.30;99.90;;;;;;4995949;28;20034;-58
2023/06/13 04:29:29;;;;;;;8.65;7.28;;;9.30;99.90;;;;;;4995660;28;20138;-57
2023/06/13 04:31:55;;;;;;;7.82;7.15;;;9.30;99.90;;;;;;4995161;28;20157;-56
2023/06/13 04:34:23;;;;;;;13.90;8.30;;;9.30;99.90;;;;;;4996399;28;20101;-57
2023/06/13 04:36:55;;;;;;;8.23;7.53;;;9.40;99.90;;;;;;4996098;28;20037;-57
2023/06/13 04:39:20;;;;;;;8.18;7.45;;;9.50;99.90;;;;;;4995223;28;20027;-56
2023/06/13 04:41:48;;;;;;;7.68;7.07;;;9.50;99.90;;;;;;4997668;28;20038;-55
2023/06/13 04:44:14;;;;;;;8.32;7.57;;;9.60;99.90;;;;;;4996125;28;20027;-57
2023/06/13 04:46:41;;;;;;;9.52;6.63;;;9.60;99.90;;;;;;4996985;28;20026;-57
2023/06/13 04:49:08;;;;;;;8.05;7.28;;;9.70;99.90;;;;;;4995787;28;20030;-57
2023/06/13 04:51:34;;;;;;;7.93;7.22;;;9.80;99.90;;;;;;4996227;28;20038;-57
2023/06/13 04:54:00;;;;;;;7.13;6.53;;;9.80;99.90;;;;;;4998313;28;20042;-57
2023/06/13 04:56:28;;;;;;;7.95;7.10;;;9.90;99.90;;;;;;4996702;28;20037;-58
2023/06/13 04:58:55;;;;;;;9.30;6.97;;;10.00;99.90;;;;;;4999136;28;20037;-58
2023/06/13 05:01:21;;;;;;;7.85;7.18;;;10.20;99.90;;;;;;4994558;28;20124;-56
2023/06/13 05:03:51;;;;;;;8.23;7.45;;;10.30;99.90;;;;;;4997999;28;20069;-58
2023/06/13 05:06:17;;;;;;;8.80;7.30;;;10.40;99.90;;;;;;4997157;28;20033;-57
2023/06/13 05:08:42;;;;;;;8.93;7.95;;;10.50;99.90;;;;;;4998965;28;20038;-57
2023/06/13 05:11:08;;;;;;;9.38;8.50;;;10.50;99.90;;;;;;4998297;28;20080;-57
2023/06/13 05:13:34;;;;;;;10.50;8.30;;;10.60;99.90;;;;;;5000223;28;20048;-57
2023/06/13 05:16:00;;;;;;;9.13;8.43;;;10.80;99.90;;;;;;4999285;28;20026;-57
2023/06/13 05:18:29;;;;;;;8.70;7.90;;;10.90;99.90;;;;;;4996590;28;20110;-57
2023/06/13 05:20:58;;;;;;;9.85;7.97;;;11.00;99.90;;;;;;4998973;28;20168;-57
2023/06/13 05:23:24;;;;;;;12.73;8.05;;;11.10;99.90;;;;;;4998578;28;20038;-57
2023/06/13 05:25:51;;;;;;;8.48;7.78;;;11.30;99.90;;;;;;4998996;28;20034;-57
2023/06/13 05:28:17;;;;;;;10.10;8.10;;;11.40;99.90;;;;;;4998209;28;20025;-56
2023/06/13 05:30:43;;;;;;;9.20;7.78;;;11.50;99.90;;;;;;4999296;28;20041;-57
2023/06/13 05:33:09;;;;;;;10.65;7.72;;;11.60;99.90;;;;;;4997779;28;20101;-57
2023/06/13 05:35:35;;;;;;;8.85;8.07;;;11.80;99.90;;;;;;5001722;28;20081;-56
2023/06/13 05:38:01;;;;;;;8.85;7.85;;;11.90;99.90;;;;;;4999949;28;20030;-57
2023/06/13 05:40:26;;;;;;;9.48;8.25;;;12.10;99.90;;;;;;4998213;28;20022;-56
2023/06/13 05:42:52;;;;;;;8.20;7.25;;;12.20;99.90;;;;;;4995875;28;20501;-57
2023/06/13 05:45:18;;;;;;;8.95;7.40;;;12.40;99.90;;;;;;5002998;28;20056;-57
2023/06/13 05:47:43;;;;;;;6.28;5.78;;;12.50;99.90;;;;;;4997870;28;20031;-58
2023/06/13 05:50:10;;;;;;;6.70;6.00;;;12.70;99.90;;;;;;4997325;28;20045;-57
2023/06/13 05:52:36;;;;;;;6.50;5.90;;;12.80;99.90;;;;;;4999258;28;20023;-58
2023/06/13 05:55:04;;;;;;;6.03;5.53;;;13.00;99.90;;;;;;5000607;28;20089;-58
2023/06/13 05:57:39;;;;;;;6.55;6.05;;;13.10;99.90;;;;;;5000408;28;20045;-58
2023/06/13 06:00:13;;;;;;;5.90;5.40;;;13.20;99.90;;;;;;5002094;28;20066;-58
2023/06/13 06:02:40;;;;;;;6.00;5.50;;;13.30;99.90;;;;;;5002205;28;20088;-57
2023/06/13 06:05:08;;;;;;;6.40;5.90;;;13.40;99.90;;;;;;5001337;28;20521;-58
2023/06/13 06:07:35;;;;;;;6.70;5.20;;;13.50;99.90;;;;;;5001906;28;20101;-58
2023/06/13 06:10:02;;;;;;;7.38;5.40;;;13.60;99.90;;;;;;4998165;28;20030;-56
2023/06/13 06:12:28;;;;;;;6.53;5.38;;;13.70;99.90;;;;;;4999406;28;20037;-58
2023/06/13 06:14:53;;;;;;;6.28;5.78;;;13.80;99.90;;;;;;4997240;28;20033;-58
2023/06/13 06:17:20;;;;;;;9.43;5.13;;;13.90;99.90;;;;;;4997823;28;20093;-57
2023/06/13 06:19:47;;;;;;;5.53;5.03;;;14.00;99.90;;;;;;5001662;28;20509;-58
2023/06/13 06:22:13;;;;;;;6.72;5.15;;;14.10;99.90;;;;;;4993761;28;20042;-58
2023/06/13 06:24:39;;;;;;;7.55;5.32;;;14.20;99.90;;;;;;4999997;28;20037;-58
2023/06/13 06:27:05;;;;;;;5.95;4.82;;;14.30;99.90;;;;;;4999240;28;20089;-57
2023/06/13 06:29:31;;;;;;;5.47;4.97;;;14.50;99.90;;;;;;5000089;28;20030;-58
2023/06/13 06:31:57;;;;;;;7.85;4.90;;;14.60;99.90;;;;;;4999002;28;20103;-58
2023/06/13 06:34:22;;;;;;;5.65;5.10;;;14.80;99.90;;;;;;4999064;28;20034;-57
2023/06/13 06:36:48;;;;;;;6.95;5.18;;;15.00;99.90;;;;;;4998979;28;20499;-56
2023/06/13 06:39:15;;;;;;;5.07;4.47;;;15.20;99.90;;;;;;4999258;28;20053;-58
2023/06/13 06:41:42;;;;;;;7.57;4.85;;;15.30;99.90;;;;;;4999038;28;20117;-58
2023/06/13 06:44:08;;;;;;;4.72;4.32;;;15.30;99.90;;;;;;4998035;28;20438;-58
2023/06/13 06:46:33;;;;;;;5.72;4.82;;;15.40;99.90;;;;;;4995907;28;20034;-58
2023/06/13 06:48:59;;;;;;;5.72;5.13;;;15.60;99.90;;;;;;4997836;28;20074;-58
2023/06/13 06:51:25;;;;;;;4.40;3.95;;;15.70;99.90;;;;;;5005592;28;20030;-57
2023/06/13 06:53:50;;;;;;;10.07;5.07;;;15.90;99.90;;;;;;4995694;28;20033;-57
2023/06/13 06:56:17;;;;;;;5.75;4.65;;;15.90;99.90;;;;;;5000035;28;20479;-58
2023/06/13 06:58:42;;;;;;;8.18;4.65;;;16.10;99.90;;;;;;4997545;28;20015;-58
2023/06/13 07:01:08;;;;;;;4.90;4.47;;;16.20;99.90;;;;;;4997079;28;20072;-57
2023/06/13 07:03:35;;;;;;;6.90;4.97;;;16.20;99.90;;;;;;4995866;28;20038;-58
2023/06/13 07:06:01;;;;;;;5.22;4.25;;;16.30;99.90;;;;;;5000509;28;20036;-56
2023/06/13 07:08:28;;;;;;;4.90;3.92;;;16.40;99.90;;;;;;4998595;28;20080;-58
2023/06/13 07:10:54;;;;;;;7.60;4.50;;;16.50;99.90;;;;;;5001074;28;20044;-57
2023/06/13 07:13:20;;;;;;;4.90;4.13;;;16.60;99.90;;;;;;4997352;28;20466;-58
2023/06/13 07:15:45;;;;;;;9.27;4.78;;;16.80;99.90;;;;;;4998015;28;20047;-58
2023/06/13 07:18:11;;;;;;;4.35;3.22;;;17.00;99.90;;;;;;4994003;28;20129;-58
2023/06/13 07:20:37;;;;;;;12.00;4.72;;;17.20;99.90;;;;;;4994943;28;20078;-57
2023/06/13 07:23:02;;;;;;;5.45;4.18;;;17.40;99.90;;;;;;4999630;28;20018;-59
2023/06/13 07:25:29;;;;;;;4.72;3.65;;;17.60;99.90;;;;;;4999630;28;20029;-57
2023/06/13 07:27:55;;;;;;;4.32;3.70;;;17.70;99.90;;;;;;4999841;28;20551;-58
2023/06/13 07:30:20;;;;;;;4.72;3.63;;;17.80;97.60;;;;;;4997476;28;20038;-58
2023/06/13 07:32:46;;;;;;;6.03;4.43;;;17.90;98.80;;;;;;4995513;28;20101;-58
2023/06/13 07:35:14;;;;;;;6.22;3.15;;;18.10;99.60;;;;;;4997182;28;20026;-58
2023/06/13 07:37:40;;;;;;;3.03;2.72;;;18.20;94.60;;;;;;4996745;28;20026;-58
2023/06/13 07:40:08;;;;;;;3.47;2.72;;;18.20;93.30;;;;;;4996302;28;20026;-58
2023/06/13 07:42:33;;;;;;;3.03;2.72;;;18.40;88.00;;;;;;4996851;28;20034;-58
2023/06/13 07:44:59;;;;;;;6.10;3.13;;;18.60;87.60;;;;;;4997487;28;20037;-58
2023/06/13 07:47:25;;;;;;;4.78;2.75;;;18.70;90.10;;;;;;4997210;28;20026;-57
2023/06/13 07:49:50;;;;;;;5.05;2.25;;;18.80;82.00;;;;;;4996869;28;20079;-55
2023/06/13 07:52:16;;;;;;;3.47;2.50;;;18.90;78.90;;;;;;4998870;28;20084;-58
2023/06/13 07:54:41;;;;;;;2.80;2.17;;;19.00;78.30;;;;;;4996142;28;20057;-58
2023/06/13 07:57:07;;;;;;;2.20;2.00;;;19.10;79.80;;;;;;4993646;28;20037;-58
2023/06/13 07:59:33;;;;;;;3.92;2.53;;;19.30;79.20;;;;;;4996879;28;20038;-57
2023/06/13 08:01:58;;;;;;;7.57;2.60;;;19.40;79.80;;;;;;4997492;28;20026;-59
2023/06/13 08:04:25;;;;;;;8.30;2.40;;;19.50;78.50;;;;;;4998082;28;20677;-57
2023/06/13 08:06:51;;;;;;;4.65;2.63;;;19.60;78.90;;;;;;4996250;28;20070;-58
2023/06/13 08:09:17;;;;;;;4.82;2.30;;;19.70;69.80;;;;;;4998503;28;20049;-58
2023/06/13 08:11:43;;;;;;;4.03;2.70;;;19.90;71.60;;;;;;5000542;28;20030;-58
2023/06/13 08:14:12;;;;;;;3.95;2.42;;;20.00;67.90;;;;;;4995973;28;20080;-58
2023/06/13 08:16:38;;;;;;;2.85;2.53;;;20.10;69.00;;;;;;4996487;28;20027;-58
2023/06/13 08:19:04;;;;;;;3.40;2.35;;;20.20;67.00;;;;;;4997157;28;20034;-57
2023/06/13 08:21:30;;;;;;;3.72;2.17;;;20.20;65.00;;;;;;4995922;28;20034;-58
2023/06/13 08:23:57;;;;;;;3.15;2.25;;;20.30;65.60;;;;;;4997595;28;20084;-58
2023/06/13 08:26:24;;;;;;;5.00;2.67;;;20.30;65.10;;;;;;4996427;28;20402;-58
2023/06/13 08:28:50;;;;;;;4.75;2.65;;;20.40;64.40;;;;;;4995845;28;20033;-56
2023/06/13 08:31:17;;;;;;;2.85;2.22;;;20.50;64.20;;;;;;4998697;28;20019;-58
2023/06/13 08:33:43;;;;;;;3.75;2.38;;;20.70;62.90;;;;;;4994244;28;20160;-59
2023/06/13 08:36:08;;;;;;;6.05;2.58;;;20.70;64.70;;;;;;4997345;28;20113;-58
2023/06/13 08:38:34;;;;;;;3.30;2.40;;;20.90;61.60;;;;;;4993350;28;20031;-58
2023/06/13 08:41:00;;;;;;;2.20;2.00;;;21.00;63.50;;;;;;4996347;28;20036;-58
2023/06/13 08:43:26;;;;;;;5.95;2.80;;;21.10;58.80;;;;;;4996618;28;20092;-58
2023/06/13 08:45:51;;;;;;;4.40;2.20;;;21.20;61.30;;;;;;4994580;28;20030;-59
2023/06/13 08:48:17;;;;;;;3.58;2.58;;;21.30;61.10;;;;;;4995731;28;20026;-59
2023/06/13 08:50:43;;;;;;;2.08;1.88;;;21.30;62.40;;;;;;4995676;28;20284;-56
2023/06/13 08:53:10;;;;;;;2.75;2.28;;;21.40;62.60;;;;;;4997402;28;20494;-58
2023/06/13 08:55:40;;;;;;;3.92;2.40;;;21.50;59.80;;;;;;4994803;28;20105;-59
2023/06/13 08:58:09;;;;;;;2.57;2.37;;;21.50;58.20;;;;;;4997124;28;20822;-58
2023/06/13 09:00:35;;;;;;;7.07;2.88;;;21.50;59.20;;;;;;4995864;28;20037;-59
2023/06/13 09:03:03;;;;;;;3.40;2.30;;;21.60;56.40;;;;;;4995954;28;20034;-59
2023/06/13 09:05:30;;;;;;;3.38;2.33;;;21.60;57.90;;;;;;4996939;28;20502;-58
2023/06/13 09:07:56;;;;;;;5.25;2.20;;;21.70;57.20;;;;;;4994695;28;20119;-59
2023/06/13 09:10:22;;;;;;;6.20;2.35;;;21.70;56.30;;;;;;4992741;28;20038;-58
2023/06/13 09:12:51;;;;;;;4.28;2.50;;;21.80;57.60;;;;;;4994239;28;20495;-58
2023/06/13 09:15:17;;;;;;;3.30;2.38;;;21.90;55.70;;;;;;4993867;28;20529;-59
2023/06/13 09:17:43;;;;;;;2.47;2.00;;;22.00;55.50;;;;;;4993715;28;20023;-58
2023/06/13 09:20:09;;;;;;;6.65;2.83;;;22.00;56.20;;;;;;4999431;28;20030;-58
2023/06/13 09:22:36;;;;;;;2.90;2.50;;;22.10;53.50;;;;;;4997665;28;20025;-59
2023/06/13 09:25:04;;;;;;;4.90;2.05;;;22.30;57.50;;;;;;4995004;28;20034;-58
2023/06/13 09:27:30;;;;;;;4.00;2.25;;;22.50;55.20;;;;;;4998485;28;20192;-58
2023/06/13 09:30:01;;;;;;;13.98;2.75;;;22.60;56.40;;;;;;5000973;28;20144;-57
2023/06/13 09:32:27;;;;;;;3.13;2.67;;;22.80;54.30;;;;;;5001123;28;20026;-58
2023/06/13 09:34:53;;;;;;;3.97;2.38;;;22.90;57.10;;;;;;5003498;28;20475;-58
2023/06/13 09:37:19;;;;;;;4.60;2.25;;;23.10;57.10;;;;;;5001299;28;20046;-58
2023/06/13 09:39:51;;;;;;;3.00;2.20;;;23.30;55.10;;;;;;4999947;28;20071;-58
2023/06/13 09:42:23;;;;;;;3.83;2.17;;;23.40;53.10;;;;;;4997758;28;20034;-59
2023/06/13 09:44:50;;;;;;;3.80;2.47;;;23.60;55.00;;;;;;4998832;28;20026;-58
2023/06/13 09:47:23;;;;;;;2.40;2.20;;;23.60;51.80;;;;;;5005799;28;20023;-59
2023/06/13 09:49:57;;;;;;;5.18;1.85;;;23.60;51.20;;;;;;4998714;28;20072;-58
2023/06/13 09:52:26;;;;;;;3.20;1.95;;;23.70;51.90;;;;;;4999465;28;20027;-58
2023/06/13 09:54:53;;;;;;;3.70;1.98;;;23.70;53.80;;;;;;4999872;28;20046;-58
2023/06/13 09:57:22;;;;;;;4.53;2.55;;;23.70;49.10;;;;;;4998414;28;20630;-58
2023/06/13 09:59:50;;;;;;;3.25;2.20;;;23.70;49.40;;;;;;5002491;28;20065;-58
2023/06/13 10:02:17;;;;;;;3.65;1.90;;;23.80;52.80;;;;;;5000252;28;20494;-59
2023/06/13 10:04:43;;;;;;;5.30;2.17;;;23.90;53.00;;;;;;5000792;28;20106;-58
2023/06/13 10:07:11;;;;;;;5.03;2.00;;;24.10;53.10;;;;;;5000089;28;20026;-58
2023/06/13 10:09:38;;;;;;;5.07;2.80;;;24.30;52.30;;;;;;4998358;28;20498;-59
2023/06/13 10:12:08;;;;;;;3.40;1.75;;;24.50;48.50;;;;;;5000006;28;20132;-59
2023/06/13 10:14:38;;;;;;;2.47;2.15;;;24.70;49.70;;;;;;4999257;28;20022;-58
2023/06/13 10:17:08;;;;;;;2.70;1.92;;;24.80;51.10;;;;;;4999336;28;20037;-58
2023/06/13 10:19:39;;;;;;;4.93;2.13;;;25.10;49.70;;;;;;4999087;28;20007;-58
2023/06/13 10:22:09;;;;;;;2.60;1.83;;;25.30;51.30;;;;;;4999079;28;20045;-59
2023/06/13 10:24:36;;;;;;;4.50;1.83;;;25.50;51.60;;;;;;5000925;28;20034;-58
2023/06/13 10:27:03;;;;;;;4.38;2.20;;;25.50;48.60;;;;;;4999230;28;20026;-58
2023/06/13 10:29:50;;;;;;;3.08;2.13;;;25.40;48.80;;;;;;4997593;28;20035;-59
2023/06/13 10:32:40;;;;;;;3.42;1.95;;;25.20;48.90;;;;;;5000952;28;20068;-58
2023/06/13 10:35:30;;;;;;;4.40;2.47;;;24.80;48.10;;;;;;4998965;28;20033;-59
2023/06/13 10:38:02;;;;;;;4.78;2.28;;;24.60;49.70;;;;;;4995544;28;20038;-58
2023/06/13 10:40:46;;;;;;;6.53;2.47;;;24.60;50.80;;;;;;4994446;28;20109;-58
2023/06/13 10:43:33;;;;;;;2.88;2.00;;;24.60;48.70;;;;;;5000246;28;20057;-58
2023/06/13 10:46:05;;;;;;;5.85;2.25;;;24.40;48.40;;;;;;4999172;28;20038;-58
2023/06/13 10:48:46;;;;;;;2.53;2.30;;;24.30;49.70;;;;;;4996214;28;20122;-58
2023/06/13 10:51:12;;;;;;;6.38;2.53;;;24.40;48.60;;;;;;4998160;28;20085;-59
2023/06/13 10:53:38;;;;;;;2.47;2.20;;;24.50;48.00;;;;;;4997300;28;20026;-59
2023/06/13 10:56:08;;;;;;;4.07;1.98;;;24.50;50.70;;;;;;4994978;28;20081;-59
2023/06/13 10:58:35;;;;;;;3.00;2.67;;;24.40;48.90;;;;;;4995833;28;20014;-59
2023/06/13 11:01:27;;;;;;;3.45;2.70;;;24.30;49.40;;;;;;4998647;28;20398;-57
2023/06/13 11:03:53;;;;;;;2.30;2.10;;;24.50;50.10;;;;;;4998950;28;20040;-58
2023/06/13 11:06:18;;;;;;;3.03;2.35;;;24.70;50.20;;;;;;4997549;28;20034;-57
2023/06/13 11:08:44;;;;;;;3.63;2.70;;;24.80;49.30;;;;;;4998054;28;20041;-58
2023/06/13 11:11:10;;;;;;;3.55;2.70;;;24.90;48.00;;;;;;4994973;28;20038;-58
2023/06/13 11:13:36;;;;;;;2.70;2.50;;;24.70;47.20;;;;;;4997974;28;20041;-58
2023/06/13 11:16:39;;;;;;;6.20;2.20;;;24.50;48.60;;;;;;4998211;28;20027;-59
2023/06/13 11:19:11;;;;;;;3.63;2.35;;;24.50;49.50;;;;;;4991295;28;20410;-59
2023/06/13 11:21:48;;;;;;;4.88;2.50;;;24.70;52.40;;;;;;4995331;28;20035;-59
2023/06/13 11:24:15;;;;;;;2.47;2.28;;;25.00;47.90;;;;;;4998320;28;20076;-58
2023/06/13 11:26:42;;;;;;;2.20;1.98;;;25.00;47.30;;;;;;4995309;28;20113;-59
2023/06/13 11:29:08;;;;;;;9.52;2.55;;;25.10;49.00;;;;;;5000056;28;20030;-59
2023/06/13 11:31:37;;;;;;;6.35;2.63;;;25.20;48.50;;;;;;4997161;28;20401;-58
2023/06/13 11:34:05;;;;;;;3.92;2.17;;;25.20;46.60;;;;;;4997870;28;20113;-58
2023/06/13 11:36:34;;;;;;;4.80;2.28;;;25.00;47.00;;;;;;4998897;28;20030;-57
2023/06/13 11:39:04;;;;;;;4.35;2.72;;;24.80;49.30;;;;;;4995291;28;20080;-58
2023/06/13 11:41:31;;;;;;;2.88;2.17;;;24.60;48.70;;;;;;4994285;28;20041;-58
2023/06/13 11:43:57;;;;;;;7.53;2.53;;;24.80;47.90;;;;;;4996605;28;20121;-58
2023/06/13 11:46:23;;;;;;;3.95;2.45;;;25.10;47.10;;;;;;4998805;28;20129;-59
2023/06/13 11:48:58;;;;;;;4.50;2.55;;;25.30;45.70;;;;;;4998463;28;20406;-59
2023/06/13 11:51:28;;;;;;;4.10;2.70;;;25.50;47.00;;;;;;4994374;28;20042;-59
2023/06/13 11:53:55;;;;;;;4.60;2.85;;;25.80;46.40;;;;;;4997944;28;20057;-59
2023/06/13 11:56:23;;;;;;;5.68;2.30;;;26.10;47.90;;;;;;4996329;28;20022;-58
2023/06/13 11:58:54;;;;;;;3.03;2.72;;;26.00;49.20;;;;;;4997400;28;20367;-58
2023/06/13 12:01:22;;;;;;;4.88;2.60;;;25.80;44.70;;;;;;5002035;28;20021;-58
2023/06/13 12:03:49;;;;;;;4.88;3.05;;;25.50;44.80;;;;;;5006344;28;20070;-58
2023/06/13 12:06:16;;;;;;;3.17;2.45;;;25.20;46.40;;;;;;4995740;28;20308;-58
2023/06/13 12:08:47;;;;;;;4.07;2.42;;;24.80;46.00;;;;;;5000994;28;20033;-58
2023/06/13 12:11:17;;;;;;;4.60;2.50;;;24.70;46.00;;;;;;4999988;28;20054;-58
2023/06/13 12:13:53;;;;;;;6.28;2.50;;;24.80;46.70;;;;;;4997790;28;20574;-59
2023/06/13 12:16:25;;;;;;;5.30;2.20;;;24.80;47.00;;;;;;4997535;28;20041;-59
2023/06/13 12:18:54;;;;;;;3.67;2.58;;;25.10;47.00;;;;;;4995791;28;20523;-59
2023/06/13 12:21:31;;;;;;;5.30;2.53;;;25.40;48.70;;;;;;4997409;28;20121;-58
2023/06/13 12:23:59;;;;;;;3.65;2.00;;;25.90;44.80;;;;;;4998895;28;20046;-58
2023/06/13 12:26:26;;;;;;;3.75;2.70;;;26.30;44.30;;;;;;4999153;28;20034;-59
2023/06/13 12:28:55;;;;;;;3.60;2.20;;;26.60;43.60;;;;;;4996402;28;20122;-59
2023/06/13 12:31:32;;;;;;;5.53;2.30;;;26.60;45.40;;;;;;4996443;28;20015;-58
2023/06/13 12:34:28;;;;;;;3.60;2.50;;;26.50;45.10;;;;;;4997903;28;20030;-58
2023/06/13 12:36:59;;;;;;;3.40;2.50;;;26.30;44.60;;;;;;4993152;28;20034;-58
2023/06/13 12:39:25;;;;;;;3.45;2.10;;;26.00;43.90;;;;;;4999575;28;20053;-59
2023/06/13 12:41:52;;;;;;;4.15;3.00;;;25.80;43.20;;;;;;4996497;28;20038;-58
2023/06/13 12:44:21;;;;;;;3.78;2.25;;;25.80;43.80;;;;;;4995107;28;20026;-59
2023/06/13 12:46:50;;;;;;;4.65;2.90;;;25.90;44.00;;;;;;4997042;28;20067;-58
2023/06/13 12:49:19;;;;;;;4.03;2.40;;;26.10;45.00;;;;;;4999027;28;20412;-59
2023/06/13 12:51:53;;;;;;;5.22;2.78;;;26.10;46.40;;;;;;4992294;28;20026;-59